Terminal Aerodrome Forecast
Issued by NWS

Home | Current Version | Previous Version | Text Only | Print | Product List | Glossary On
Versions: 1 2 3 4 5 6 7 8 9 10 11 12 13 14 15 16
000
FTAK31 PAJN 211135
TAFAJN
TAF
PAJN 211135Z 2112/2212 06004KT 1SM -SN SCT014 BKN030 OVC050
      WS020/06020KT
      TEMPO 2112/2116 1/2SM SN FZFG BKN014 OVC020
     FM211800 10005KT 3SM -SN SCT025 OVC040
     FM212200 08005KT P6SM BKN060
     FM220600 00000KT 1SM BR SCT003 SCT060=

USA.gov is the U.S. government's official web portal to all federal, state and local government web resources and services.